• Join FlightAware (Why Join?)
  • Login
  • US Flag 
04:32AM EDT


 

Airport Tracker/Info


-or-


 

Live Flight TrackerFlight Track Log ✈ AWE1913 ✈ 15-Apr-2013 ✈ KPHL - MYNN / NAS

Flight Track Log - Related Links

Times and Time Zones

All times are in EDT time to prevent confusion due to time zone crossing. See the AWE1913 flight status page for this flight to view local times or setup timezone preferences in your user account.

Time Position Orientation Groundspeed Altitude Reporting Facility
EDT Latitude Longitude Course Direction KTS MPH feet Rate Location/Type
10:31AM 39.8767 -75.2108 191° South 144 166 1,500  Level FAA TRACON SMA TRACON (SMA)
10:31AM 39.8722 -75.1942 109° East 166 191 1,900 1,200 Climbing FAA TRACON SMA TRACON (SMA)
10:31AM 39.8656 -75.1744 114° Southeast 178 205 2,300 900 Climbing FAA TRACON SMA TRACON (SMA)
10:32AM 39.8583 -75.1519 113° Southeast 223 257 2,500 1,200 Climbing FAA TRACON SMA TRACON (SMA)
10:32AM 39.8500 -75.1272 114° Southeast 246 283 3,100 2,100 Climbing FAA TRACON SMA TRACON (SMA)
10:32AM 39.8394 -75.0944 113° Southeast 271 312 3,900 2,400 Climbing FAA TRACON SMA TRACON (SMA)
10:33AM 39.5048 -75.3157 189° South  Level FlightAware Approximate
10:33AM 39.8311 -75.0664 111° Southeast 271 312 4,700  Level FAA TRACON SMA TRACON (SMA)
10:33AM 39.8206 -75.0322 112° Southeast 279 321 5,700 3,120 Climbing FAA TRACON SMA TRACON (SMA)
10:33AM 39.8050 -75.0069 129° Southeast 272 313 6,800 2,820 Climbing FAA TRACON SMA TRACON (SMA)
10:34AM 39.3817 -75.3391 185° South  Level FlightAware Approximate
10:34AM 39.7831 -74.9969 161° South 280 322 7,600  Level FAA TRACON SMA TRACON (SMA)
10:34AM 39.7611 -75.0056 197° South 281 323 8,300 2,400 Climbing FAA TRACON SMA TRACON (SMA)
10:34AM 39.7394 -75.0325 224° Southwest 290 334 9,200 2,100 Climbing FAA TRACON SMA TRACON (SMA)
10:35AM 39.2579 -75.3585 194° South  Level FlightAware Approximate
10:35AM 39.6997 -75.0822 224° Southwest 289 333 10,600  Level FAA TRACON SMA TRACON (SMA)
10:35AM 39.6794 -75.1069 223° Southwest 323 372 10,900 1,140 Climbing FAA TRACON SMA TRACON (SMA)
10:36AM 39.1349 -75.3829 191° South  Level FlightAware Approximate
10:36AM 39.6583 -75.1333 224° Southwest 358 412 11,300  Level FAA TRACON SMA TRACON (SMA)
10:36AM 39.6367 -75.1600 223° Southwest 354 407 11,500 720 Climbing FAA TRACON SMA TRACON (SMA)
10:36AM 39.6150 -75.1881 225° Southwest 354 407 11,800 720 Climbing FAA TRACON SMA TRACON (SMA)
10:37AM 39.5886 -75.2208 224° Southwest 356 410 12,000 300 Climbing FAA TRACON SMA TRACON (SMA)
10:37AM 39.5661 -75.2492 224° Southwest 357 411 12,000  Level FAA TRACON SMA TRACON (SMA)
10:37AM 39.5431 -75.2781 224° Southwest 357 411 12,000 420 Level FAA TRACON SMA TRACON (SMA)
10:38AM 39.5158 -75.3125 224° Southwest 356 410 12,300 1,620 Climbing FAA TRACON SMA TRACON (SMA)
10:38AM 39.4883 -75.3292 205° Southwest 356 410 13,100 2,400 Climbing FAA TRACON SMA TRACON (SMA)
10:38AM 39.4514 -75.3364 189° South 356 410 13,900 2,280 Climbing FAA TRACON SMA TRACON (SMA)
10:39AM 39.3900 -75.3478 188° South 360 414 15,400 2,100 Climbing FAA TRACON SMA TRACON (SMA)
10:39AM 39.3592 -75.3536 188° South 361 415 16,000 2,100 Climbing FAA TRACON SMA TRACON (SMA)
10:40AM 39.3200 -75.3606 188° South 367 422 16,800 1,500 Climbing FAA TRACON SMA TRACON (SMA)
10:40AM 39.2883 -75.3664 188° South 369 425 17,000 300 Climbing FAA TRACON SMA TRACON (SMA)
10:40AM 39.2503 -75.3714 186° South 371 427 17,000  Level FAA TRACON SMA TRACON (SMA)
10:41AM 39.2419 -75.3733 190° South 370 426 17,000  Level FAA TRACON SMA TRACON (SMA)
10:41AM 39.2419 -75.3733 330° Northwest 370 426 17,000 720 Level FAA TRACON SMA TRACON (SMA)
10:42AM 39.0217 -75.4125 188° South 384 442 18,400 1,260 Climbing Washington Center
10:43AM 38.9131 -75.4289 187° South 396 456 20,200 1,800 Climbing Washington Center
10:44AM 38.8028 -75.4450 186° South 404 465 22,000 1,680 Climbing Washington Center
10:45AM 38.6881 -75.4614 186° South 414 476 23,600 1,440 Climbing Washington Center
10:46AM 38.5942 -75.4775 188° South 420 483 24,900 1,380 Climbing Washington Center
10:47AM 38.4650 -75.4936 186° South 426 490 26,400 1,200 Climbing Washington Center
10:48AM 38.3483 -75.5150 188° South 426 490 27,300 960 Climbing Washington Center
10:49AM 38.2397 -75.5681 201° Southwest 426 490 28,400 1,080 Climbing Washington Center
10:50AM 38.1272 -75.6261 202° Southwest 426 490 29,500 780 Climbing Washington Center
10:51AM 38.0189 -75.6972 207° Southwest 431 496 30,000 480 Climbing Washington Center
10:52AM 37.9039 -75.7522 201° Southwest 441 507 30,500 1,080 Climbing Washington Center
10:53AM 37.7933 -75.8125 203° Southwest 441 507 32,200 1,200 Climbing Washington Center
10:54AM 37.6847 -75.8700 203° Southwest 435 501 33,000 840 Climbing Washington Center
10:55AM 37.5761 -75.9272 203° Southwest 435 501 33,900 1,140 Climbing Washington Center
10:56AM 37.4697 -75.9869 204° Southwest 435 501 35,300 1,020 Climbing Washington Center
10:57AM 37.3631 -76.0414 202° Southwest 425 489 36,000 300 Climbing Washington Center
10:58AM 37.2564 -76.0956 202° Southwest 420 483 36,000  Level Washington Center
10:59AM 37.1519 -76.1494 202° Southwest 415 478 36,000  Level Washington Center
11:00AM 37.0433 -76.2008 201° Southwest 420 483 36,000  Level Washington Center
11:01AM 36.9386 -76.2572 203° Southwest 415 478 36,000  Level Washington Center
11:02AM 36.8297 -76.3133 202° Southwest 415 478 36,000  Level Washington Center
11:03AM 36.7231 -76.3694 203° Southwest 415 478 36,000  Level Washington Center
11:04AM 36.6058 -76.4328 203° Southwest 420 483 36,000  Level Washington Center
11:05AM 36.4969 -76.4886 202° Southwest 420 483 36,000  Level Washington Center
11:06AM 36.3881 -76.5414 201° Southwest 420 483 36,000  Level Washington Center
11:07AM 36.2792 -76.5994 203° Southwest 420 483 36,000  Level Washington Center
11:08AM 36.1658 -76.6544 201° Southwest 420 483 36,000 -60 Level Washington Center
11:09AM 36.0592 -76.7097 203° Southwest 420 483 35,900  Descending Washington Center
11:10AM 35.9500 -76.7672 203° Southwest 420 483 36,000  Climbing Washington Center
11:11AM 35.8408 -76.8194 201° Southwest 420 483 36,000 -60 Level Washington Center
11:12AM 35.7319 -76.8764 203° Southwest 420 483 35,900 -60 Descending Washington Center
11:13AM 35.6292 -76.9286 202° Southwest 420 483 35,900  Level Washington Center
11:14AM 35.5117 -76.9853 201° Southwest 419 482 36,000 60 Climbing Washington Center
11:15AM 35.3983 -77.0419 202° Southwest 429 494 36,100  Climbing Washington Center
11:16AM 35.2869 -77.0983 202° Southwest 439 505 36,000 -60 Descending Washington Center
11:17AM 35.1694 -77.1547 201° Southwest 439 505 36,000  Level Washington Center
11:18AM 35.0581 -77.2108 202° Southwest 439 505 36,000  Level Washington Center
11:19AM 34.9447 -77.2669 202° Southwest 439 505 36,000  Level Washington Center
11:20AM 34.8311 -77.3228 202° Southwest 439 505 36,000  Level Washington Center
11:21AM 34.7303 -77.3761 203° Southwest 439 505 36,000 -60 Level Washington Center
11:22AM 34.6147 -77.4317 202° Southwest 439 505 35,900  Descending Washington Center
11:23AM 34.4972 -77.4694 195° South 439 505 36,000  Climbing Washington Center
11:24AM 34.3697 -77.4892 187° South 446 513 36,000  Level Washington Center
11:25AM 34.2461 -77.5089 188° South 453 521 36,000  Level Washington Center
11:29AM 33.7503 -77.5975 188° South 442 509 36,000  Level Jacksonville Center
11:30AM 33.6281 -77.6172 188° South 442 509 36,000  Level Jacksonville Center
11:31AM 33.5017 -77.6397 188° South 447 514 36,000  Level Jacksonville Center
11:32AM 33.3775 -77.6619 189° South 447 514 36,000  Level Jacksonville Center
11:33AM 33.2531 -77.6842 188° South 445 512 36,000  Level Jacksonville Center
11:34AM 33.1289 -77.7064 189° South 445 512 36,000  Level Jacksonville Center
11:35AM 33.0044 -77.7258 187° South 447 514 36,000 -60 Level Jacksonville Center
11:36AM 32.8925 -77.7447 188° South 447 514 35,900  Descending Jacksonville Center
11:37AM 32.7703 -77.7667 189° South 442 509 36,000  Climbing Jacksonville Center
11:38AM 32.6439 -77.7861 187° South 442 509 36,000 -60 Level Jacksonville Center
11:39AM 32.5175 -77.8106 189° South 442 509 35,900 -60 Descending Jacksonville Center
11:40AM 32.3931 -77.8322 188° South 447 514 35,900  Level Jacksonville Center
11:41AM 32.2708 -77.8511 187° South 447 514 36,000  Climbing Jacksonville Center
11:42AM 32.1411 -77.8486 179° South 452 520 36,000  Level Jacksonville Center
11:43AM 32.0133 -77.8358 175° South 467 537 36,000 -60 Level Jacksonville Center
11:44AM 31.8858 -77.8283 177° South 467 537 35,900 -60 Descending Jacksonville Center
11:45AM 31.7600 -77.8181 176° South 461 531 35,900  Level Jacksonville Center
11:46AM 31.6328 -77.8178 180° South 461 531 36,000  Climbing Jacksonville Center
11:47AM 31.5053 -77.8125 178° South 461 531 36,000  Level Jacksonville Center
11:48AM 31.3817 -77.8022 176° South 461 531 36,000 -60 Level Jacksonville Center
11:49AM 31.2544 -77.8019 180° South 461 531 35,900  Descending Jacksonville Center
11:50AM 31.1244 -77.7919 176° South 461 531 36,000  Climbing Jacksonville Center
11:51AM 30.9967 -77.7794 175° South 461 531 36,000  Level Jacksonville Center
11:52AM 30.8689 -77.7694 176° South 461 531 36,000  Level Jacksonville Center
11:53AM 30.7392 -77.7619 177° South 461 531 36,000  Level Jacksonville Center
11:55AM 30.4922 -77.7558 179° South 446 513 36,000  Level Miami Center
11:56AM 30.3714 -77.7500 178° South 464 534 36,000  Level Miami Center
11:57AM 30.2422 -77.7514 181° South 464 534 36,000  Level Miami Center
11:58AM 30.1131 -77.7408 176° South 459 528 36,000  Level Miami Center
11:59AM 29.9900 -77.7375 179° South 450 518 36,000 -60 Level Miami Center
12:00PM 29.8628 -77.7267 176° South 458 527 35,900  Descending Miami Center
12:01PM 29.7336 -77.7211 178° South 468 539 36,000  Climbing Miami Center
12:02PM 29.6044 -77.7128 177° South 463 533 36,000  Level Miami Center
12:03PM 29.5000 -77.7192 183° South 398 458 36,000  Level Miami Center
12:04PM 29.3561 -77.6989 173° South 456 525 36,000  Level Miami Center
12:05PM 29.2311 -77.6956 179° South 462 532 36,000  Level Miami Center
12:06PM 29.1017 -77.6875 177° South 456 525 36,000  Level Miami Center
12:07PM 28.9725 -77.6819 178° South 456 525 36,000  Level Miami Center
12:08PM 28.8472 -77.6739 177° South 462 532 36,000  Level Miami Center
12:09PM 28.7178 -77.6658 177° South 457 526 36,000  Level Miami Center
12:10PM 28.5906 -77.6600 178° South 457 526 36,000  Level Miami Center
12:11PM 28.4778 -77.6547 178° South 451 519 36,000 -120 Level Miami Center
12:12PM 28.3403 -77.6467 177° South 457 526 35,800 -600 Descending Miami Center
12:13PM 28.2108 -77.6386 177° South 463 533 34,800 -600 Descending Miami Center
12:15PM 27.9497 -77.6275 178° South 466 536 34,000 -300 Descending Miami Center
12:16PM 27.8225 -77.6172 176° South 466 536 34,000  Level Miami Center
12:17PM 27.6911 -77.6117 178° South 466 536 34,000  Level Miami Center
12:18PM 27.5719 -77.6061 178° South 475 547 34,000  Level Miami Center
12:19PM 27.4425 -77.6031 179° South 475 547 34,000  Level Miami Center
12:20PM 27.3153 -77.5953 177° South 470 541 34,000  Level Miami Center
12:21PM 27.1858 -77.5781 173° South 470 541 34,000  Level Miami Center
12:22PM 27.0561 -77.5794 181° South 470 541 34,000  Level Miami Center
12:23PM 26.9289 -77.5625 173° South 470 541 34,000  Level Miami Center
12:24PM 26.8117 -77.5967 195° South 451 519 34,000 -660 Level Miami Center
12:25PM 26.6925 -77.6378 197° South 440 506 32,700 -1,860 Descending Miami Center
12:26PM 26.5878 -77.6906 204° Southwest 429 494 30,300 -2,460 Descending Miami Center
12:27PM 26.4911 -77.7525 210° Southwest 417 480 27,800 -2,520 Descending Miami Center
12:28PM 26.3883 -77.8144 208° Southwest 417 480 25,300 -2,640 Descending Miami Center
12:29PM 26.2714 -77.8019 175° South 404 465 22,600 -2,640 Descending Miami Center
12:30PM 26.1592 -77.7408 154° Southeast 409 471 20,100 -2,160 Descending Miami Center
12:31PM 26.0550 -77.6869 155° Southeast 414 476 18,300 -1,800 Descending Miami Center
12:32PM 25.9592 -77.6331 153° Southeast 407 468 16,600 -1,800 Descending Miami Center
12:33PM 25.8611 -77.5839 156° South 392 451 14,800 -1,500 Descending Miami Center
12:34PM 25.7694 -77.5350 154° Southeast 379 436 13,600 -960 Descending Miami Center
12:35PM 25.6903 -77.4906 153° Southeast 349 402 12,900 -900 Descending Miami Center
12:36PM 25.6150 -77.4833 175° South 313 360 11,800 -1,140 Descending Miami Center